Time;durP1;ratioP1;P1;durP2;ratioP2;P2;SDS_P1;SDS_P2;PMS_P1;PMS_P2;Temp;Humidity;BMP_temperature;BMP_pressure;BME280_temperature;BME280_humidity;BME280_pressure;Samples;Min_cycle;Max_cycle;Signal;HPM_P1;HPM_P2
2022/12/24 00:01:25;;;;;;;20.58;11.15;;;;;;;;;;5115934;28;20080;-89
2022/12/24 00:03:52;;;;;;;19.52;11.40;;;;;;;;;;5082078;28;20130;-89
2022/12/24 00:06:19;;;;;;;20.88;12.30;;;;;;;;;;5117666;28;20635;-89
2022/12/24 00:08:45;;;;;;;21.90;12.52;;;;;;;;;;5099593;28;20056;-91
2022/12/24 00:11:11;;;;;;;22.45;12.15;;;;;;;;;;5062428;28;20055;-91
2022/12/24 00:13:38;;;;;;;24.58;13.07;;;;;;;;;;5080143;28;20434;-90
2022/12/24 00:16:04;;;;;;;26.38;12.75;;;;;;;;;;5079784;28;20052;-91
2022/12/24 00:18:30;;;;;;;24.25;13.45;;;;;;;;;;5079971;28;20551;-89
2022/12/24 00:20:56;;;;;;;23.55;12.65;;;;;;;;;;5079645;28;20056;-90
2022/12/24 00:23:23;;;;;;;27.70;13.73;;;;;;;;;;5096971;28;20139;-92
2022/12/24 00:25:49;;;;;;;24.50;13.57;;;;;;;;;;5096059;28;20051;-88
2022/12/24 00:28:15;;;;;;;24.17;12.95;;;;;;;;;;5096398;28;20051;-88
2022/12/24 00:30:42;;;;;;;25.60;13.73;;;;;;;;;;5081317;28;20044;-89
2022/12/24 00:33:08;;;;;;;21.85;12.77;;;;;;;;;;5100866;28;20048;-88
2022/12/24 00:35:38;;;;;;;21.80;12.23;;;;;;;;;;5078722;28;20052;-89
2022/12/24 00:38:04;;;;;;;27.10;13.95;;;;;;;;;;5079247;28;20044;-90
2022/12/24 00:40:30;;;;;;;22.75;13.40;;;;;;;;;;5114500;28;20442;-91
2022/12/24 00:42:57;;;;;;;22.75;13.32;;;;;;;;;;5079255;28;20491;-91
2022/12/24 00:45:23;;;;;;;24.85;14.02;;;;;;;;;;5062394;28;20467;-90
2022/12/24 00:47:49;;;;;;;24.58;13.77;;;;;;;;;;5079709;28;20047;-91
2022/12/24 00:50:17;;;;;;;23.33;13.50;;;;;;;;;;5079879;28;20130;-92
2022/12/24 00:52:43;;;;;;;29.38;14.95;;;;;;;;;;5096602;28;20098;-92
2022/12/24 00:55:11;;;;;;;22.38;13.32;;;;;;;;;;5088129;22;20048;-89
2022/12/24 00:57:55;;;;;;;27.48;13.80;;;;;;;;;;5083980;28;20058;-91
2022/12/24 01:01:00;;;;;;;30.63;15.32;;;;;;;;;;5128806;22;20071;-90
2022/12/24 01:03:37;;;;;;;25.58;14.55;;;;;;;;;;5083853;28;20113;-90
2022/12/24 01:06:26;;;;;;;27.13;13.82;;;;;;;;;;5106499;22;20056;-89
2022/12/24 01:11:26;;;;;;;27.88;14.23;;;;;;;;;;5077775;28;20048;-88
2022/12/24 01:13:53;;;;;;;24.70;13.25;;;;;;;;;;5080233;28;20052;-88
2022/12/24 01:16:20;;;;;;;26.50;15.18;;;;;;;;;;5081858;28;20044;-88
2022/12/24 01:18:46;;;;;;;24.20;14.10;;;;;;;;;;5067429;28;20083;-88
2022/12/24 01:21:13;;;;;;;26.25;14.75;;;;;;;;;;5067632;28;20511;-88
2022/12/24 01:23:39;;;;;;;27.77;14.00;;;;;;;;;;5084667;28;20087;-87
2022/12/24 01:26:11;;;;;;;27.25;15.02;;;;;;;;;;5104557;28;20044;-88
2022/12/24 01:28:40;;;;;;;25.98;14.93;;;;;;;;;;5105063;28;20052;-88
2022/12/24 01:31:14;;;;;;;30.67;16.48;;;;;;;;;;5052192;28;20052;-87
2022/12/24 01:33:40;;;;;;;29.88;16.00;;;;;;;;;;5085512;28;20047;-88
2022/12/24 01:36:07;;;;;;;24.08;14.13;;;;;;;;;;5068562;28;20051;-89
2022/12/24 01:38:33;;;;;;;24.55;14.02;;;;;;;;;;5067460;28;20044;-88
2022/12/24 01:43:43;;;;;;;24.50;13.88;;;;;;;;;;5107241;28;20082;-88
2022/12/24 01:46:30;;;;;;;31.27;15.02;;;6.90;99.90;;;;;;5070674;28;20055;-88
2022/12/24 01:48:58;;;;;;;34.50;17.10;;;;;;;;;;5084226;28;20055;-88
2022/12/24 01:51:29;;;;;;;30.42;15.65;;;;;;;;;;5067629;28;20052;-88
2022/12/24 01:54:12;;;;;;;32.88;15.73;;;;;;;;;;5064467;28;20059;-88
2022/12/24 01:56:44;;;;;;;31.33;16.73;;;;;;;;;;5080063;28;20462;-89
2022/12/24 01:59:11;;;;;;;29.30;16.67;;;;;;;;;;5062489;28;20055;-89
2022/12/24 02:01:38;;;;;;;35.47;17.00;;;;;;;;;;5077726;28;20059;-91
2022/12/24 02:04:13;;;;;;;32.75;16.55;;;;;;;;;;5113088;28;20052;-87
2022/12/24 02:06:39;;;;;;;33.78;16.90;;;;;;;;;;5064601;28;20086;-87
2022/12/24 02:09:06;;;;;;;34.97;16.77;;;;;;;;;;5100064;28;20048;-88
2022/12/24 02:11:39;;;;;;;30.90;15.82;;;;;;;;;;5066359;28;20407;-88
2022/12/24 02:14:05;;;;;;;34.17;17.00;;;;;;;;;;5113928;28;20500;-88
2022/12/24 02:16:44;;;;;;;36.33;16.20;;;;;;;;;;5097974;28;20329;-87
2022/12/24 02:19:35;;;;;;;37.25;17.98;;;;;;;;;;5080678;28;20052;-87
2022/12/24 02:22:01;;;;;;;38.22;18.88;;;;;;;;;;5081796;28;20515;-87
2022/12/24 02:24:30;;;;;;;32.05;16.55;;;;;;;;;;5064635;28;20052;-87
2022/12/24 02:27:24;;;;;;;41.38;17.42;;;6.90;99.90;;;;;;5063987;28;20127;-88
2022/12/24 02:30:26;;;;;;;34.35;15.20;;;;;;;;;;5082064;28;20087;-87
2022/12/24 02:33:07;;;;;;;33.00;16.10;;;;;;;;;;5020658;28;20046;-87
2022/12/24 02:35:37;;;;;;;28.05;15.50;;;;;;;;;;5063255;28;20130;-87
2022/12/24 02:38:07;;;;;;;28.25;14.93;;;;;;;;;;5077882;22;20614;-88
2022/12/24 02:40:40;;;;;;;34.28;16.20;;;;;;;;;;5045040;28;20052;-88
2022/12/24 02:43:11;;;;;;;25.67;15.30;;;;;;;;;;5061047;28;20554;-87
2022/12/24 02:45:38;;;;;;;29.50;15.57;;;;;;;;;;5056288;28;20056;-88
2022/12/24 02:48:05;;;;;;;29.08;15.63;;;;;;;;;;5056807;28;20048;-88
2022/12/24 02:50:31;;;;;;;31.83;15.40;;;;;;;;;;5058372;28;20050;-88
2022/12/24 02:52:57;;;;;;;34.42;16.85;;;;;;;;;;5041102;28;20044;-88
2022/12/24 02:55:26;;;;;;;37.80;15.75;;;;;;;;;;5058795;28;20048;-87
2022/12/24 02:58:01;;;;;;;28.50;15.10;;;;;;;;;;5042053;28;20054;-88
2022/12/24 03:00:31;;;;;;;31.15;15.55;;;;;;;;;;5058965;28;20070;-87
2022/12/24 03:03:06;;;;;;;32.90;16.25;;;;;;;;;;5042333;28;20416;-88
2022/12/24 03:05:53;;;;;;;33.22;15.90;;;;;;;;;;5042198;28;20080;-88
2022/12/24 03:08:22;;;;;;;25.65;14.20;;;;;;;;;;5035249;28;20053;-88
2022/12/24 03:11:01;;;;;;;28.58;14.38;;;;;;;;;;5058827;28;20050;-88
2022/12/24 03:13:28;;;;;;;24.20;13.88;;;;;;;;;;5041169;28;20496;-90
2022/12/24 03:15:54;;;;;;;18.52;11.90;;;;;;;;;;5040935;28;20071;-88
2022/12/24 03:18:22;;;;;;;18.85;11.88;;;;;;;;;;5041016;28;20087;-88
2022/12/24 03:20:57;;;;;;;22.75;12.57;;;;;;;;;;5056858;28;20049;-88
2022/12/24 03:23:23;;;;;;;21.17;12.80;;;;;;;;;;5057046;28;20049;-88
2022/12/24 03:25:49;;;;;;;22.45;10.98;;;;;;;;;;5024800;28;20063;-88
2022/12/24 03:28:18;;;;;;;19.67;9.90;;;;;;;;;;5061227;28;20048;-89
2022/12/24 03:30:46;;;;;;;14.60;9.93;;;;;;;;;;5060527;28;20553;-92
2022/12/24 03:33:13;;;;;;;18.67;9.88;;;;;;;;;;5060943;28;20059;-87
2022/12/24 03:35:39;;;;;;;16.33;8.55;;;;;;;;;;5043397;28;20086;-90
2022/12/24 03:38:06;;;;;;;17.38;9.55;;;;;;;;;;5058845;28;20053;-92
2022/12/24 03:40:32;;;;;;;17.30;10.20;;;;;;;;;;5058634;28;20072;-88
2022/12/24 03:42:59;;;;;;;15.90;8.15;;;;;;;;;;5058524;28;20067;-88
2022/12/24 03:45:25;;;;;;;15.93;9.40;;;;;;;;;;5059135;28;20056;-87
2022/12/24 03:47:51;;;;;;;20.50;8.15;;;;;;;;;;5043808;28;20144;-87
2022/12/24 03:50:17;;;;;;;15.48;8.20;;;;;;;;;;5059146;28;20198;-88
2022/12/24 03:52:43;;;;;;;15.57;7.82;;;;;;;;;;5058932;28;20123;-87
2022/12/24 03:55:09;;;;;;;27.02;8.23;;;;;;;;;;5077185;28;20049;-87
2022/12/24 03:57:42;;;;;;;20.42;7.28;;;;;;;;;;5059729;28;20050;-87
2022/12/24 04:00:08;;;;;;;13.38;8.00;;;;;;;;;;5072275;22;20043;-87
2022/12/24 04:02:34;;;;;;;19.77;7.90;;;;;;;;;;5097030;28;20142;-87
2022/12/24 04:05:00;;;;;;;21.35;7.05;;;;;;;;;;5098327;28;20056;-87
2022/12/24 04:07:26;;;;;;;17.27;6.47;;;;;;;;;;5082302;28;20051;-87
2022/12/24 04:09:52;;;;;;;18.42;6.60;;;;;;;;;;5079226;28;20040;-88
2022/12/24 04:12:19;;;;;;;26.45;7.22;;;;;;;;;;5079900;28;20574;-87
2022/12/24 04:14:45;;;;;;;22.88;7.43;;;;;;;;;;5079879;28;20048;-88
2022/12/24 04:17:11;;;;;;;12.15;5.63;;;;;;;;;;5078607;28;20439;-89
2022/12/24 04:19:44;;;;;;;20.08;8.50;;;;;;;;;;5080934;28;20059;-87
2022/12/24 04:22:10;;;;;;;25.65;8.40;;;;;;;;;;5088079;28;20059;-88
2022/12/24 04:24:37;;;;;;;21.70;7.38;;;;;;;;;;5088079;28;20056;-88
2022/12/24 04:27:08;;;;;;;33.13;7.13;;;;;;;;;;5088405;28;20053;-87
2022/12/24 04:29:34;;;;;;;19.83;6.82;;;;;;;;;;5104643;28;20062;-88
2022/12/24 04:32:04;;;;;;;23.88;8.75;;;;;;;;;;5105491;28;20043;-91
2022/12/24 04:34:30;;;;;;;26.20;8.50;;;;;;;;;;5087740;28;20051;-87
2022/12/24 04:36:58;;;;;;;29.35;8.02;;;;;;;;;;5105658;28;20058;-87
2022/12/24 04:39:30;;;;;;;31.20;8.02;;;;;;;;;;5071675;28;20063;-87
2022/12/24 04:42:02;;;;;;;24.05;7.88;;;;;;;;;;5105735;28;20104;-88
2022/12/24 04:44:28;;;;;;;26.33;6.63;;;;;;;;;;5122651;28;20047;-88
2022/12/24 04:46:54;;;;;;;13.48;5.75;;;;;;;;;;5104293;28;20051;-87
2022/12/24 04:49:20;;;;;;;31.42;5.82;;;;;;;;;;5103004;28;20138;-88
2022/12/24 04:51:46;;;;;;;32.97;7.88;;;;;;;;;;5086347;28;20222;-90
2022/12/24 04:54:13;;;;;;;32.83;6.47;;;;;;;;;;5102892;28;20043;-90
2022/12/24 04:56:39;;;;;;;29.40;6.15;;;;;;;;;;5103231;28;20059;-87
2022/12/24 04:59:05;;;;;;;27.23;6.32;;;;;;;;;;5120252;28;20083;-88
2022/12/24 05:01:32;;;;;;;25.70;6.78;;;;;;;;;;5085794;28;20071;-87
2022/12/24 05:03:59;;;;;;;37.38;5.65;;;;;;;;;;5102483;28;20487;-88
2022/12/24 05:06:27;;;;;;;26.52;6.35;;;;;;;;;;5085298;28;20047;-89
2022/12/24 05:08:54;;;;;;;42.67;7.15;;;;;;;;;;5085356;28;20051;-88
2022/12/24 05:11:29;;;;;;;25.30;6.15;;;;;;;;;;5101928;28;20074;-88
2022/12/24 05:13:57;;;;;;;37.50;7.10;;;;;;;;;;5120175;28;20071;-88
2022/12/24 05:16:23;;;;;;;31.42;6.57;;;;;;;;;;5085994;28;20138;-88
2022/12/24 05:18:50;;;;;;;39.08;6.65;;;;;;;;;;5106686;28;20048;-94
2022/12/24 05:21:17;;;;;;;33.65;7.03;;;;;;;;;;5108032;28;20530;-89
2022/12/24 05:26:54;;;;;;;34.47;10.43;;;;;;;;;;5057028;28;20047;-88
2022/12/24 05:29:20;;;;;;;32.13;7.15;;;;;;;;;;5120527;28;20342;-89
2022/12/24 05:31:46;;;;;;;31.55;6.07;;;;;;;;;;5084493;28;20105;-88
2022/12/24 05:34:13;;;;;;;36.65;7.80;;;;;;;;;;5084048;28;20048;-88
2022/12/24 05:36:40;;;;;;;32.33;7.22;;;;;;;;;;5083602;28;20090;-88
2022/12/24 05:39:06;;;;;;;33.70;8.18;;;;;;;;;;5083064;28;20083;-88
2022/12/24 05:41:32;;;;;;;37.10;6.88;;;;;;;;;;5121678;28;20051;-89
2022/12/24 05:44:00;;;;;;;44.22;7.15;;;;;;;;;;5123348;28;20051;-92
2022/12/24 05:46:27;;;;;;;44.10;8.15;;;;;;;;;;5122723;28;20055;-91
2022/12/24 05:48:59;;;;;;;25.27;7.05;;;;;;;;;;5092584;28;20076;-88
2022/12/24 05:51:25;;;;;;;45.00;6.53;;;;;;;;;;5108210;28;20108;-87
2022/12/24 05:54:05;;;;;;;32.70;7.05;;;;;;;;;;5110466;28;20134;-89
2022/12/24 05:56:31;;;;;;;40.83;7.72;;;;;;;;;;5124365;28;20081;-88
2022/12/24 05:58:57;;;;;;;36.17;7.90;;;;;;;;;;5108189;28;20047;-94
2022/12/24 06:01:28;;;;;;;29.85;7.65;;;;;;;;;;5127091;28;20051;-88
2022/12/24 06:03:55;;;;;;;37.53;8.07;;;;;;;;;;5101285;28;20105;-87
2022/12/24 06:06:25;;;;;;;35.22;7.28;;;;;;;;;;5080752;28;20055;-89
2022/12/24 06:08:52;;;;;;;34.08;6.65;;;;;;;;;;5080459;28;20052;-88
2022/12/24 06:11:20;;;;;;;33.38;6.55;;;;;;;;;;5080754;28;20050;-91
2022/12/24 06:13:46;;;;;;;38.65;7.47;;;;;;;;;;5081533;28;20044;-90
2022/12/24 06:16:13;;;;;;;32.33;7.40;;;;;;;;;;5098291;28;20427;-92
2022/12/24 06:18:40;;;;;;;39.50;6.72;;;;;;;;;;5080267;28;20066;-92
2022/12/24 06:21:06;;;;;;;22.80;6.63;;;;;;;;;;5079935;28;20134;-89
2022/12/24 06:23:34;;;;;;;52.42;7.88;;;;;;;;;;5080130;28;20047;-88
2022/12/24 06:26:01;;;;;;;30.42;6.30;;;;;;;;;;5080493;28;20052;-88
2022/12/24 06:28:28;;;;;;;32.17;6.35;;;;;;;;;;5097126;28;20399;-88
2022/12/24 06:30:54;;;;;;;33.28;6.68;;;;;;;;;;5079709;28;20052;-89
2022/12/24 06:33:20;;;;;;;38.17;6.22;;;;;;;;;;5063718;28;20391;-89
2022/12/24 06:35:46;;;;;;;33.72;6.28;;;;;;;;;;5063521;28;20440;-90
2022/12/24 06:38:13;;;;;;;40.83;7.35;;;;;;;;;;5079386;28;20126;-90
2022/12/24 06:40:39;;;;;;;38.13;7.43;;;;;;;;;;5079784;28;20048;-87
2022/12/24 06:43:05;;;;;;;31.45;6.50;;;;;;;;;;5097421;28;20059;-89
2022/12/24 06:45:32;;;;;;;28.73;6.57;;;;;;;;;;5097432;28;20458;-88
2022/12/24 06:47:58;;;;;;;41.90;8.10;;;;;;;;;;5080004;28;20048;-89
2022/12/24 06:50:24;;;;;;;39.85;6.65;;;;;;;;;;5079026;28;20144;-89
2022/12/24 06:52:50;;;;;;;31.40;6.55;;;;;;;;;;5079342;28;20047;-90
2022/12/24 06:55:17;;;;;;;37.70;7.07;;;;;;;;;;5079884;28;20047;-89
2022/12/24 06:57:43;;;;;;;35.90;6.72;;;;;;;;;;5079624;28;20438;-89
2022/12/24 07:00:10;;;;;;;31.67;7.75;;;;;;;;;;5079870;28;20055;-88
2022/12/24 07:02:40;;;;;;;39.50;7.18;;;;;;;;;;5098522;28;20469;-94
2022/12/24 07:05:07;;;;;;;29.25;7.75;;;;;;;;;;5081810;28;20047;-88
2022/12/24 07:07:33;;;;;;;36.92;7.97;;;;;;;;;;5081653;28;20416;-89
2022/12/24 07:09:59;;;;;;;47.25;8.35;;;;;;;;;;5064336;28;20094;-89
2022/12/24 07:12:26;;;;;;;31.98;6.07;;;;;;;;;;5081345;28;20048;-90
2022/12/24 07:14:52;;;;;;;29.60;5.60;;;;;;;;;;5116533;28;20043;-90
2022/12/24 07:17:18;;;;;;;23.48;6.47;;;;;;;;;;5080714;28;20412;-90
2022/12/24 07:19:44;;;;;;;31.95;7.45;;;;;;;;;;5096358;28;20050;-88
2022/12/24 07:22:11;;;;;;;45.80;7.18;;;;;;;;;;5097709;28;20052;-88
2022/12/24 07:24:37;;;;;;;42.92;7.90;;;;;;;;;;5115853;28;20403;-90
2022/12/24 07:27:04;;;;;;;29.30;7.07;;;;;;;;;;5080236;28;20058;-92
2022/12/24 07:29:30;;;;;;;33.00;6.00;;;;;;;;;;5097319;28;20055;-92
2022/12/24 07:31:56;;;;;;;32.08;6.15;;;;;;;;;;5079979;28;20043;-89
2022/12/24 07:34:22;;;;;;;31.20;7.05;;;;;;;;;;5080414;28;20512;-91
2022/12/24 07:36:48;;;;;;;26.23;5.43;;;;;;;;;;5080814;28;20412;-92
2022/12/24 07:39:20;;;;;;;31.20;6.85;;;;;;;;;;5097155;28;20559;-91
2022/12/24 07:41:47;;;;;;;27.35;5.57;;;;;;;;;;5064315;28;20131;-89
2022/12/24 07:44:13;;;;;;;30.42;7.57;;;;;;;;;;5097416;28;20048;-93
2022/12/24 07:46:40;;;;;;;27.50;6.10;;;;;;;;;;5097356;28;20131;-94
2022/12/24 07:49:06;;;;;;;32.78;7.70;;;;;;;;;;5097942;28;20047;-95
2022/12/24 07:51:32;;;;;;;37.97;6.60;;;;;;;;;;5080697;28;20063;-95
2022/12/24 07:53:59;;;;;;;35.88;7.18;;;;;;;;;;5081214;28;20052;-93
2022/12/24 07:56:25;;;;;;;33.83;6.93;;;;;;;;;;5097202;28;20051;-92
2022/12/24 07:58:51;;;;;;;41.25;7.07;;;;;;;;;;5096490;28;20047;-95
2022/12/24 08:01:18;;;;;;;25.13;6.13;;;;;;;;;;5079354;28;20087;-93
2022/12/24 08:03:53;;;;;;;36.25;7.13;;;;;;;;;;5080697;28;20050;-94
2022/12/24 08:06:19;;;;;;;28.08;7.43;;;;;;;;;;5096334;28;20047;-92
2022/12/24 08:08:45;;;;;;;23.58;6.93;;;;;;;;;;5096402;28;20053;-92
2022/12/24 08:11:11;;;;;;;30.20;6.35;;;;;;;;;;5096544;28;20051;-94
2022/12/24 08:13:37;;;;;;;33.40;6.82;;;;;;;;;;5062895;28;20044;-91
2022/12/24 08:16:04;;;;;;;36.65;7.38;;;;;;;;;;5095776;28;20059;-93
2022/12/24 08:18:30;;;;;;;35.15;7.25;;;;;;;;;;5096069;28;20055;-94
2022/12/24 08:20:56;;;;;;;33.35;7.70;;;;;;;;;;5113678;28;20420;-95
2022/12/24 08:23:22;;;;;;;23.30;7.00;;;;;;;;;;5095563;28;20138;-94
2022/12/24 08:25:49;;;;;;;40.95;7.35;;;;;;;;;;5079219;28;20050;-93
2022/12/24 08:28:16;;;;;;;28.38;6.45;;;;;;;;;;5078825;28;20048;-91
2022/12/24 08:30:42;;;;;;;36.60;7.10;;;;;;;;;;5095618;28;20059;-94
2022/12/24 08:33:08;;;;;;;32.92;6.47;;;;;;;;;;5078507;28;20044;-90
2022/12/24 08:35:34;;;;;;;29.80;6.40;;;;;;;;;;5078889;28;20053;-96
2022/12/24 08:38:01;;;;;;;38.47;7.43;;;;;;;;;;5095476;28;20043;-95
2022/12/24 08:40:27;;;;;;;27.27;6.07;;;;;;;;;;5078937;28;20458;-89
2022/12/24 08:42:53;;;;;;;34.28;7.20;;;;;;;;;;5095352;28;20048;-92
2022/12/24 08:45:19;;;;;;;31.15;7.15;;;;;;;;;;5078306;28;20142;-91
2022/12/24 08:47:45;;;;;;;36.03;7.63;;;;;;;;;;5095866;28;20047;-92
2022/12/24 08:50:12;;;;;;;32.22;8.38;;;;;;;;;;5079258;28;20052;-88
2022/12/24 08:52:38;;;;;;;26.67;6.35;;;;;;;;;;5095861;28;20146;-90
2022/12/24 08:55:04;;;;;;;27.77;6.95;;;;;;;;;;5078933;28;20385;-90
2022/12/24 08:57:30;;;;;;;28.77;7.57;;;;;;;;;;5095363;28;20112;-95
2022/12/24 08:59:56;;;;;;;31.27;7.78;;;;;;;;;;5095132;28;20052;-95
2022/12/24 09:02:22;;;;;;;37.78;7.00;;;;;;;;;;5078372;28;20397;-94
2022/12/24 09:04:49;;;;;;;23.92;6.05;;;;;;;;;;5095909;28;20047;-94
2022/12/24 09:07:15;;;;;;;18.77;6.05;;;;;;;;;;5079465;28;20054;-93
2022/12/24 09:09:41;;;;;;;30.00;6.40;;;;;;;;;;5079136;28;20090;-94
2022/12/24 09:12:08;;;;;;;26.25;6.32;;;;;;;;;;5095030;28;20412;-90
2022/12/24 09:14:35;;;;;;;39.22;6.63;;;;;;;;;;5079519;28;20040;-90
2022/12/24 09:17:01;;;;;;;18.70;5.43;;;;;;;;;;5081579;28;20079;-93
2022/12/24 09:19:27;;;;;;;31.42;7.10;;;;;;;;;;5082822;28;20123;-95
2022/12/24 09:21:53;;;;;;;28.40;5.97;;;;;;;;;;5082172;28;20480;-94
2022/12/24 09:24:19;;;;;;;33.38;6.72;;;;;;;;;;5082603;28;20044;-95
2022/12/24 09:26:48;;;;;;;36.30;6.85;;;;;;;;;;5099447;28;20058;-92
2022/12/24 09:29:14;;;;;;;32.88;6.53;;;;;;;;;;5099524;28;20064;-93
2022/12/24 09:31:40;;;;;;;32.50;6.57;;;;;;;;;;5097059;28;20048;-89
2022/12/24 09:34:06;;;;;;;28.77;7.20;;;;;;;;;;5080351;28;20048;-89
2022/12/24 09:36:33;;;;;;;21.38;5.22;;;;;;;;;;5097546;28;20051;-89
2022/12/24 09:38:59;;;;;;;34.60;7.15;;;;;;;;;;5063794;28;20120;-89
2022/12/24 09:41:31;;;;;;;33.90;6.57;;;;;;;;;;5097448;28;20052;-89
2022/12/24 09:44:14;;;;;;;37.05;7.38;;;;;;;;;;5097087;28;20148;-89
2022/12/24 09:46:41;;;;;;;34.17;8.25;;;;;;;;;;5080003;28;20154;-90
2022/12/24 09:49:13;;;;;;;29.58;7.13;;;;;;;;;;5063775;28;20082;-89
2022/12/24 09:51:45;;;;;;;43.13;7.30;;;;;;;;;;5096790;28;20051;-89
2022/12/24 09:54:11;;;;;;;34.55;7.05;;;;;;;;;;5099386;28;20055;-89
2022/12/24 09:56:39;;;;;;;24.05;6.22;;;;;;;;;;5099773;28;20047;-89
2022/12/24 09:59:09;;;;;;;30.92;7.70;;;;;;;;;;5099330;28;20056;-89
2022/12/24 10:01:36;;;;;;;31.95;7.40;;;;;;;;;;5080321;28;20552;-89
2022/12/24 10:04:16;;;;;;;28.05;6.32;;;;;;;;;;5080610;28;20047;-90
2022/12/24 10:06:45;;;;;;;29.75;5.80;;;;;;;;;;5080504;28;20113;-89
2022/12/24 10:09:24;;;;;;;36.28;7.07;;;;;;;;;;5080260;28;20050;-90
2022/12/24 10:12:00;;;;;;;30.67;6.88;;;;;;;;;;5096709;28;20059;-89
2022/12/24 10:14:35;;;;;;;33.75;7.65;;;;;;;;;;5079657;28;20059;-89
2022/12/24 10:17:02;;;;;;;35.25;6.88;;;;;;;;;;5096677;28;20059;-90
2022/12/24 10:19:36;;;;;;;34.75;7.50;;;;;;;;;;5079774;28;20044;-89
2022/12/24 10:22:07;;;;;;;26.38;7.13;;;;;;;;;;5114588;28;20043;-90
2022/12/24 10:24:49;;;;;;;32.75;6.57;;;;;;;;;;5096538;28;20066;-90
2022/12/24 10:27:17;;;;;;;36.30;7.47;;;;;;;;;;5078701;28;20096;-90
2022/12/24 10:29:48;;;;;;;34.13;6.85;;;;;;;;;;5096428;28;20048;-91
2022/12/24 10:32:20;;;;;;;32.03;7.07;;;;;;;;;;5079454;28;20083;-89
2022/12/24 10:34:49;;;;;;;40.38;7.72;;;;;;;;;;5079745;28;20085;-90
2022/12/24 10:37:16;;;;;;;28.55;7.30;;;;;;;;;;5095913;28;20388;-91
2022/12/24 10:39:43;;;;;;;32.20;7.07;;;;;;;;;;5096001;28;20548;-91
2022/12/24 10:42:10;;;;;;;24.58;6.97;;;;;;;;;;5079250;28;20126;-89
2022/12/24 10:44:36;;;;;;;31.75;6.18;;;;;;;;;;5079175;28;20044;-90
2022/12/24 10:47:04;;;;;;;29.45;6.65;;;;;;;;;;5062421;28;20051;-90
2022/12/24 10:49:40;;;;;;;31.58;7.28;;;;;;;;;;5096448;28;20490;-90
2022/12/24 10:52:10;;;;;;;35.50;7.30;;;;;;;;;;5095823;28;20044;-90
2022/12/24 10:54:39;;;;;;;32.33;6.22;;;;;;;;;;5079006;28;20058;-91
2022/12/24 10:57:19;;;;;;;28.60;5.93;;;;;;;;;;5079015;28;20144;-91
2022/12/24 10:59:51;;;;;;;24.45;6.50;;;;;;;;;;5097517;28;20083;-93
2022/12/24 11:02:31;;;;;;;34.55;7.70;;;;;;;;;;5096649;28;20500;-93
2022/12/24 11:04:59;;;;;;;30.63;6.90;;;;;;;;;;5079955;28;20060;-91
2022/12/24 11:07:25;;;;;;;25.85;6.18;;;;;;;;;;5096048;28;20414;-90
2022/12/24 11:09:57;;;;;;;24.73;5.72;;;;;;;;;;5079207;28;20393;-88
2022/12/24 11:12:24;;;;;;;31.23;5.95;;;;;;;;;;5096388;28;20082;-89
2022/12/24 11:15:07;;;;;;;27.35;5.68;;;;;;;;;;5096074;28;20057;-88
2022/12/24 11:17:34;;;;;;;26.95;6.00;;;;;;;;;;5095729;28;20057;-88
2022/12/24 11:20:02;;;;;;;20.48;6.25;;;;;;;;;;5078912;28;20484;-87
2022/12/24 11:22:32;;;;;;;27.55;5.60;;;;;;;;;;5063124;28;20138;-87
2022/12/24 11:25:01;;;;;;;22.27;5.45;;;;;;;;;;5078945;28;20051;-91
2022/12/24 11:27:32;;;;;;;22.42;5.05;;;;;;;;;;5078614;28;20113;-88
2022/12/24 11:30:22;;;;;;;26.92;5.63;;;;;;;;;;5115867;28;20047;-88
2022/12/24 11:32:49;;;;;;;21.60;5.22;;;;;;;;;;5091254;28;20051;-87
2022/12/24 11:35:15;;;;;;;25.88;5.35;;;;;;;;;;5128125;28;20556;-87
2022/12/24 11:37:41;;;;;;;26.15;4.20;;;;;;;;;;5109030;28;20043;-88
2022/12/24 11:40:18;;;;;;;38.85;5.18;;;;;;;;;;5106110;28;20126;-87
2022/12/24 11:42:45;;;;;;;19.73;3.85;;;;;;;;;;5082962;28;20063;-87
2022/12/24 11:45:22;;;;;;;27.08;5.05;;;;;;;;;;5064066;28;20051;-87
2022/12/24 11:47:48;;;;;;;33.65;5.80;;;;;;;;;;5078520;28;20165;-87
2022/12/24 11:50:23;;;;;;;25.20;5.93;;;;;;;;;;5095111;28;20052;-88
2022/12/24 11:53:04;;;;;;;17.42;5.30;;;;;;;;;;5114661;28;20047;-87
2022/12/24 11:55:36;;;;;;;17.95;4.78;;;;;;;;;;5079553;28;20047;-87
2022/12/24 11:58:16;;;;;;;20.55;5.50;;;;;;;;;;5079737;28;20047;-87
2022/12/24 12:00:43;;;;;;;22.17;5.95;;;;;;;;;;5079206;28;20484;-87
2022/12/24 12:03:18;;;;;;;19.27;5.45;;;;;;;;;;5063004;28;20322;-87
2022/12/24 12:05:44;;;;;;;26.77;4.70;;;;;;;;;;5078675;28;20043;-88
2022/12/24 12:08:15;;;;;;;22.42;4.45;;;;;;;;;;5078989;28;20083;-88
2022/12/24 12:10:42;;;;;;;16.35;4.65;;;;;;;;;;5095934;28;20113;-89
2022/12/24 12:13:13;;;;;;;20.35;4.88;;;;;;;;;;5078811;28;20096;-88
2022/12/24 12:16:05;;;;;;;15.75;4.60;;;;;;;;;;5096662;28;20043;-91
2022/12/24 12:18:36;;;;;;;14.93;5.47;;;;;;;;;;5096697;28;20058;-90
2022/12/24 12:21:07;;;;;;;15.43;3.70;;;;;;;;;;5097441;28;20051;-90
2022/12/24 12:23:38;;;;;;;21.33;5.57;;;;;;;;;;5080334;28;20039;-91
2022/12/24 12:26:06;;;;;;;21.60;5.97;;;;;;;;;;5080863;28;20055;-90
2022/12/24 12:28:33;;;;;;;22.80;5.97;;;;;;;;;;5097667;28;20044;-91
2022/12/24 12:31:05;;;;;;;16.17;4.93;;;;;;;;;;5097141;28;20454;-91
2022/12/24 12:33:38;;;;;;;17.38;4.45;;;;;;;;;;5097452;28;20367;-91
2022/12/24 12:36:05;;;;;;;24.27;4.95;;;;;;;;;;5094770;28;20066;-90
2022/12/24 12:38:31;;;;;;;18.45;5.07;;;;;;;;;;5113215;28;20048;-90
2022/12/24 12:41:03;;;;;;;18.55;4.18;;;;;;;;;;5078007;28;20071;-90
2022/12/24 12:43:59;;;;;;;20.55;5.32;;;;;;;;;;5078503;28;20568;-90
2022/12/24 12:46:31;;;;;;;21.25;4.72;;;;;;;;;;5095550;28;20055;-91
2022/12/24 12:49:13;;;;;;;29.08;6.97;;;;;;;;;;5079076;28;20051;-90
2022/12/24 12:51:42;;;;;;;26.20;6.07;;;;;;;;;;5082362;28;20054;-90
2022/12/24 12:54:21;;;;;;;18.08;4.47;;;;;;;;;;5099536;28;20046;-91
2022/12/24 12:56:51;;;;;;;16.92;3.67;;;;;;;;;;5098958;28;20040;-92
2022/12/24 12:59:26;;;;;;;20.35;5.10;;;;;;;;;;5081880;28;20044;-91
2022/12/24 13:02:00;;;;;;;23.25;5.15;;;;;;;;;;5082749;28;20090;-90
2022/12/24 13:04:26;;;;;;;;;;;;;;;;;;5100052;28;20055;-89
2022/12/24 13:07:02;;;;;;;19.15;6.10;;;;;;;;;;5099866;28;20375;-90
2022/12/24 13:09:46;;;;;;;14.48;4.25;;;;;;;;;;5082865;28;20342;-90
2022/12/24 13:12:20;;;;;;;17.83;4.05;;;;;;;;;;5099498;28;20047;-90
2022/12/24 13:15:05;;;;;;;22.92;3.80;;;;;;;;;;5082608;28;20035;-91
2022/12/24 13:17:41;;;;;;;20.73;4.85;;;;;;;;;;5082038;28;20060;-92
2022/12/24 13:20:13;;;;;;;11.85;4.05;;;;;;;;;;5099365;28;20149;-90
2022/12/24 13:22:39;;;;;;;14.88;4.03;;;;;;;;;;5082725;28;20039;-91
2022/12/24 13:25:05;;;;;;;26.95;4.03;;;;;;;;;;5082485;28;20054;-90
2022/12/24 13:27:33;;;;;;;16.75;4.15;;;;;;;;;;5082406;28;20048;-91
2022/12/24 13:30:01;;;;;;;21.75;5.05;;;;;;;;;;5081421;28;20039;-88
2022/12/24 13:32:27;;;;;;;15.63;4.13;;;;;;;;;;5081119;28;20083;-87
2022/12/24 13:34:59;;;;;;;21.20;4.80;;;;;;;;;;5081921;28;20051;-89
2022/12/24 13:37:28;;;;;;;9.50;2.90;;;;;;;;;;5098845;28;20071;-88
2022/12/24 13:40:07;;;;;;;17.27;4.35;;;;;;;;;;5081913;28;20112;-91
2022/12/24 13:42:54;;;;;;;11.13;3.50;;;;;;;;;;5083801;28;20043;-88
2022/12/24 13:48:14;;;;;;;16.98;4.28;;;;;;;;;;5102700;28;20087;-88
2022/12/24 13:50:43;;;;;;;16.83;5.47;;;;;;;;;;5102458;28;20055;-90
2022/12/24 13:53:23;;;;;;;7.38;4.13;;;;;;;;;;5083191;28;20047;-94
2022/12/24 13:55:53;;;;;;;13.40;4.22;;;;;;;;;;5081444;28;20055;-92
2022/12/24 13:58:20;;;;;;;10.20;3.85;;;;;;;;;;5096942;28;20054;-88
2022/12/24 14:00:57;;;;;;;14.13;4.22;;;;;;;;;;5079779;28;20418;-91
2022/12/24 14:03:25;;;;;;;11.50;4.38;;;;;;;;;;5080305;28;20054;-90
2022/12/24 14:06:00;;;;;;;17.45;4.38;;;;;;;;;;5080391;28;20096;-88
2022/12/24 14:08:32;;;;;;;26.88;4.63;;;;;;;;;;5080440;28;20533;-90
2022/12/24 14:11:19;;;;;;;18.17;5.53;;;;;;;;;;5096721;28;20054;-92
2022/12/24 14:13:48;;;;;;;11.70;3.90;;;;;;;;;;5080682;28;20469;-94
2022/12/24 14:16:15;;;;;;;8.63;4.05;;;;;;;;;;5096950;28;20050;-93
2022/12/24 14:18:42;;;;;;;11.75;4.18;;;;;;;;;;5080213;28;20150;-89
2022/12/24 14:21:27;;;;;;;10.73;3.80;;;;;;;;;;5080445;28;20130;-92
2022/12/24 14:23:59;;;;;;;16.02;3.90;;;;;;;;;;5079974;28;20051;-93
2022/12/24 14:26:28;;;;;;;14.07;4.43;;;;;;;;;;5096695;28;20131;-92
2022/12/24 14:29:03;;;;;;;13.05;5.05;;;;;;;;;;5096909;28;20507;-92
2022/12/24 14:31:29;;;;;;;13.60;5.25;;;;;;;;;;5079956;28;20062;-92
2022/12/24 14:34:08;;;;;;;20.88;4.95;;;;;;;;;;5097141;28;20054;-95
2022/12/24 14:36:35;;;;;;;10.23;4.03;;;;;;;;;;5064374;28;20092;-94
2022/12/24 14:39:01;;;;;;;11.65;3.80;;;;;;;;;;5079669;28;20040;-90
2022/12/24 14:41:50;;;;;;;18.67;5.07;;;;;;;;;;5079097;28;20051;-90
2022/12/24 14:44:34;;;;;;;12.45;4.50;;;;;;;;;;5079080;28;20105;-90
2022/12/24 14:47:06;;;;;;;22.67;4.00;;;;;;;;;;5078914;28;20051;-90
2022/12/24 14:49:50;;;;;;;17.08;4.85;;;;;;;;;;5079051;28;20109;-90
2022/12/24 14:52:40;;;;;;;15.98;3.92;;;;;;;;;;5079019;28;20055;-91